Time,TemperatureF,DewpointF,PressureIn,WindDirection,WindDirectionDegrees,WindSpeedMPH,WindSpeedGustMPH,Humidity,HourlyPrecipIn,Conditions,Clouds,dailyrainin,SolarRadiationWatts/m^2,SoftwareType,DateUTC
2013-02-20 00:00:00,33.1,28.2,29.67,WNW,293,3.0,15.0,82,0.00,,,0.08,0.0,meteohub,2013-02-20 05:00:00,
2013-02-20 00:01:00,33.1,27.9,29.67,West,279,4.0,15.0,81,0.00,,,0.08,0.0,meteohub,2013-02-20 05:01:00,
2013-02-20 00:02:00,33.1,27.9,29.67,WNW,293,2.0,15.0,81,0.00,,,0.00,0.0,meteohub,2013-02-20 05:02:00,
2013-02-20 00:07:00,33.1,27.9,29.66,NW,318,7.0,15.0,81,0.00,,,0.00,0.0,meteohub,2013-02-20 05:07:00,
2013-02-20 00:13:00,32.9,27.5,29.67,WSW,258,10.0,15.0,80,0.00,,,0.00,0.0,meteohub,2013-02-20 05:13:00,
2013-02-20 00:18:00,32.9,27.5,29.66,WNW,284,1.0,15.0,80,0.00,,,0.00,0.0,meteohub,2013-02-20 05:18:00,
2013-02-20 00:23:00,32.7,27.3,29.67,West,270,3.0,15.0,80,0.00,,,0.00,0.0,meteohub,2013-02-20 05:23:00,
2013-02-20 00:29:00,32.7,27.3,29.66,WNW,298,7.0,15.0,80,0.00,,,0.00,0.0,meteohub,2013-02-20 05:29:00,
2013-02-20 00:34:00,32.5,27.1,29.66,NW,313,3.0,11.0,80,0.00,,,0.00,0.0,meteohub,2013-02-20 05:34:00,
2013-02-20 00:39:00,32.5,27.1,29.66,NW,310,9.0,11.0,80,0.00,,,0.00,0.0,meteohub,2013-02-20 05:39:00,
2013-02-20 00:45:00,32.5,27.1,29.66,WSW,250,5.0,11.0,80,0.00,,,0.00,0.0,meteohub,2013-02-20 05:45:00,
2013-02-20 00:50:00,32.4,27.0,29.66,WSW,240,0.0,11.0,80,0.00,,,0.00,0.0,meteohub,2013-02-20 05:50:00,
2013-02-20 00:55:00,32.4,27.0,29.67,NNE,24,3.0,15.0,80,0.00,,,0.00,0.0,meteohub,2013-02-20 05:55:00,
2013-02-20 01:00:00,32.4,27.0,29.67,WNW,292,3.0,15.0,80,0.00,,,0.00,0.0,meteohub,2013-02-20 06:00:00,
2013-02-20 01:06:00,32.2,27.0,29.67,WSW,251,0.0,15.0,81,0.00,,,0.00,0.0,meteohub,2013-02-20 06:06:00,
2013-02-20 01:11:00,32.2,27.0,29.67,SSW,207,0.0,10.0,81,0.00,,,0.00,0.0,meteohub,2013-02-20 06:11:00,
2013-02-20 01:16:00,32.2,27.0,29.67,WSW,245,2.0,10.0,81,0.00,,,0.00,0.0,meteohub,2013-02-20 06:16:00,
2013-02-20 01:22:00,32.2,27.0,29.68,WSW,245,1.0,10.0,81,0.00,,,0.00,0.0,meteohub,2013-02-20 06:22:00,
2013-02-20 01:27:00,32.2,27.0,29.68,NE,38,0.0,10.0,81,0.00,,,0.00,0.0,meteohub,2013-02-20 06:27:00,
2013-02-20 01:32:00,32.2,27.0,29.68,West,273,3.0,13.0,81,0.00,,,0.00,0.0,meteohub,2013-02-20 06:32:00,
2013-02-20 01:37:00,32.2,27.0,29.69,WNW,292,3.0,13.0,81,0.00,,,0.00,0.0,meteohub,2013-02-20 06:37:00,
2013-02-20 01:42:00,32.2,27.0,29.69,WNW,296,7.0,10.0,81,0.00,,,0.00,0.0,meteohub,2013-02-20 06:42:00,
2013-02-20 01:47:00,32.0,26.6,29.69,NW,317,2.0,10.0,80,0.00,,,0.00,0.0,meteohub,2013-02-20 06:47:00,
2013-02-20 01:52:00,32.0,26.6,29.69,WNW,303,7.0,10.0,80,0.00,,,0.00,0.0,meteohub,2013-02-20 06:52:00,
2013-02-20 01:57:00,31.8,25.7,29.69,WSW,254,0.0,17.0,78,0.00,,,0.00,0.0,meteohub,2013-02-20 06:57:00,
2013-02-20 02:03:00,31.6,25.3,29.69,NNW,346,5.0,17.0,77,0.00,,,0.00,0.0,meteohub,2013-02-20 07:03:00,
2013-02-20 02:08:00,31.6,25.0,29.69,SW,234,2.0,17.0,76,0.00,,,0.00,0.0,meteohub,2013-02-20 07:08:00,
2013-02-20 02:13:00,31.6,25.0,29.70,West,266,3.0,18.0,76,0.00,,,0.00,0.0,meteohub,2013-02-20 07:13:00,
2013-02-20 02:19:00,31.5,24.4,29.70,West,275,12.0,18.0,75,0.00,,,0.00,0.0,meteohub,2013-02-20 07:19:00,
2013-02-20 02:24:00,31.3,24.3,29.70,WNW,292,9.0,18.0,75,0.00,,,0.00,0.0,meteohub,2013-02-20 07:24:00,
2013-02-20 02:29:00,31.3,23.9,29.70,NE,44,2.0,18.0,74,0.00,,,0.00,0.0,meteohub,2013-02-20 07:29:00,
2013-02-20 02:34:00,31.1,23.7,29.70,NW,317,17.0,17.0,74,0.00,,,0.00,0.0,meteohub,2013-02-20 07:34:00,
2013-02-20 02:40:00,30.9,23.5,29.70,West,261,4.0,15.0,74,0.00,,,0.00,0.0,meteohub,2013-02-20 07:40:00,
2013-02-20 02:45:00,30.9,23.9,29.70,WSW,252,3.0,21.0,75,0.00,,,0.00,0.0,meteohub,2013-02-20 07:45:00,
2013-02-20 02:50:00,30.7,23.7,29.70,WNW,284,11.0,21.0,75,0.00,,,0.00,0.0,meteohub,2013-02-20 07:50:00,
2013-02-20 02:56:00,30.6,23.5,29.71,WNW,282,4.0,21.0,75,0.00,,,0.00,0.0,meteohub,2013-02-20 07:56:00,
2013-02-20 03:01:00,30.6,23.5,29.71,SW,219,3.0,18.0,75,0.00,,,0.00,0.0,meteohub,2013-02-20 08:01:00,
2013-02-20 03:06:00,30.4,23.4,29.71,North,349,4.0,18.0,75,0.00,,,0.00,0.0,meteohub,2013-02-20 08:06:00,
2013-02-20 03:11:00,30.4,23.4,29.71,SW,215,8.0,16.0,75,0.00,,,0.00,0.0,meteohub,2013-02-20 08:11:00,
2013-02-20 03:17:00,30.2,23.2,29.71,NW,321,4.0,16.0,75,0.00,,,0.00,0.0,meteohub,2013-02-20 08:17:00,
2013-02-20 03:22:00,30.0,22.8,29.71,NW,307,4.0,16.0,74,0.00,,,0.00,0.0,meteohub,2013-02-20 08:22:00,
2013-02-20 03:27:00,30.0,22.8,29.71,NW,318,2.0,16.0,74,0.00,,,0.00,0.0,meteohub,2013-02-20 08:27:00,
2013-02-20 03:32:00,29.8,22.6,29.72,NW,313,4.0,16.0,74,0.00,,,0.00,0.0,meteohub,2013-02-20 08:32:00,
2013-02-20 03:37:00,29.8,22.6,29.72,West,275,0.0,14.0,74,0.00,,,0.00,0.0,meteohub,2013-02-20 08:37:00,
2013-02-20 03:42:00,29.8,22.8,29.72,NW,319,2.0,14.0,75,0.00,,,0.00,0.0,meteohub,2013-02-20 08:42:00,
2013-02-20 03:47:00,29.7,22.5,29.72,WNW,302,2.0,14.0,74,0.00,,,0.00,0.0,meteohub,2013-02-20 08:47:00,
2013-02-20 03:52:00,29.7,22.5,29.73,West,272,2.0,11.0,74,0.00,,,0.00,0.0,meteohub,2013-02-20 08:52:00,
2013-02-20 03:57:00,29.5,22.3,29.73,WNW,282,2.0,11.0,74,0.00,,,0.00,0.0,meteohub,2013-02-20 08:57:00,
2013-02-20 04:02:00,29.5,21.9,29.73,NNW,344,1.0,12.0,73,0.00,,,0.00,0.0,meteohub,2013-02-20 09:02:00,
2013-02-20 04:07:00,29.3,21.4,29.72,North,355,5.0,12.0,72,0.00,,,0.00,0.0,meteohub,2013-02-20 09:07:00,
2013-02-20 04:12:00,29.1,20.8,29.72,NW,315,3.0,12.0,71,0.00,,,0.00,0.0,meteohub,2013-02-20 09:12:00,
2013-02-20 04:17:00,29.1,20.8,29.72,West,270,5.0,12.0,71,0.00,,,0.00,0.0,meteohub,2013-02-20 09:17:00,
2013-02-20 04:22:00,29.1,20.5,29.72,WNW,294,5.0,18.0,70,0.00,,,0.00,0.0,meteohub,2013-02-20 09:22:00,
2013-02-20 04:28:00,28.9,20.5,29.73,WNW,286,3.0,18.0,70,0.00,,,0.00,0.0,meteohub,2013-02-20 09:28:00,
2013-02-20 04:33:00,28.9,20.5,29.73,WSW,242,2.0,18.0,70,0.00,,,0.00,0.0,meteohub,2013-02-20 09:33:00,
2013-02-20 04:38:00,28.9,20.5,29.73,West,265,6.0,14.0,70,0.00,,,0.00,0.0,meteohub,2013-02-20 09:38:00,
2013-02-20 04:43:00,28.9,20.7,29.73,NW,315,0.0,14.0,71,0.00,,,0.00,0.0,meteohub,2013-02-20 09:43:00,
2013-02-20 04:49:00,28.8,20.5,29.73,WNW,297,4.0,14.0,71,0.00,,,0.00,0.0,meteohub,2013-02-20 09:49:00,
2013-02-20 04:54:00,28.8,20.5,29.73,North,355,3.0,18.0,71,0.00,,,0.00,0.0,meteohub,2013-02-20 09:54:00,
2013-02-20 04:59:00,28.8,20.8,29.73,West,279,1.0,18.0,72,0.00,,,0.00,0.0,meteohub,2013-02-20 09:59:00,
2013-02-20 05:05:00,28.8,20.8,29.73,West,279,2.0,18.0,72,0.00,,,0.00,0.0,meteohub,2013-02-20 10:05:00,
2013-02-20 05:10:00,28.6,20.7,29.73,WSW,240,6.0,18.0,72,0.00,,,0.00,0.0,meteohub,2013-02-20 10:10:00,
2013-02-20 05:15:00,28.6,20.7,29.73,WNW,294,4.0,15.0,72,0.00,,,0.00,0.0,meteohub,2013-02-20 10:15:00,
2013-02-20 05:21:00,28.6,20.7,29.73,NW,319,1.0,15.0,72,0.00,,,0.00,0.0,meteohub,2013-02-20 10:21:00,
2013-02-20 05:26:00,28.6,20.7,29.73,SW,232,3.0,15.0,72,0.00,,,0.00,0.0,meteohub,2013-02-20 10:26:00,
2013-02-20 05:31:00,28.4,20.5,29.73,WSW,240,2.0,15.0,72,0.00,,,0.00,0.0,meteohub,2013-02-20 10:31:00,
2013-02-20 05:37:00,28.4,20.1,29.73,West,267,3.0,12.0,71,0.00,,,0.00,0.0,meteohub,2013-02-20 10:37:00,
2013-02-20 05:42:00,28.2,20.1,29.73,NNW,341,2.0,12.0,71,0.00,,,0.00,0.0,meteohub,2013-02-20 10:42:00,
2013-02-20 05:47:00,28.2,20.1,29.73,NW,326,2.0,12.0,71,0.00,,,0.00,0.0,meteohub,2013-02-20 10:47:00,
2013-02-20 05:52:00,28.2,20.1,29.73,West,265,7.0,12.0,71,0.00,,,0.00,0.0,meteohub,2013-02-20 10:52:00,
2013-02-20 05:57:00,28.2,20.1,29.73,West,265,2.0,10.0,71,0.00,,,0.00,0.0,meteohub,2013-02-20 10:57:00,
2013-02-20 06:02:00,28.2,20.1,29.73,West,259,0.0,10.0,71,0.00,,,0.00,0.0,meteohub,2013-02-20 11:02:00,
2013-02-20 06:07:00,28.2,20.1,29.73,SW,233,0.0,10.0,71,0.00,,,0.00,0.0,meteohub,2013-02-20 11:07:00,
2013-02-20 06:12:00,28.0,19.9,29.73,West,278,1.0,10.0,71,0.00,,,0.00,0.0,meteohub,2013-02-20 11:12:00,
2013-02-20 06:17:00,28.0,19.9,29.73,NW,309,5.0,11.0,71,0.00,,,0.00,0.0,meteohub,2013-02-20 11:17:00,
2013-02-20 06:22:00,28.0,19.6,29.73,NW,304,5.0,11.0,70,0.00,,,0.00,0.0,meteohub,2013-02-20 11:22:00,
2013-02-20 06:27:00,28.0,19.6,29.73,NW,314,4.0,11.0,70,0.00,,,0.00,0.0,meteohub,2013-02-20 11:27:00,
2013-02-20 06:32:00,28.0,19.2,29.73,NNE,15,7.0,11.0,69,0.00,,,0.00,0.0,meteohub,2013-02-20 11:32:00,
2013-02-20 06:38:00,28.0,19.2,29.73,NW,313,6.0,11.0,69,0.00,,,0.00,0.0,meteohub,2013-02-20 11:38:00,
2013-02-20 06:43:00,27.9,19.0,29.74,NW,315,6.0,14.0,69,0.00,,,0.00,0.0,meteohub,2013-02-20 11:43:00,
2013-02-20 06:48:00,27.9,18.7,29.74,West,263,10.0,14.0,68,0.00,,,0.00,5.0,meteohub,2013-02-20 11:48:00,
2013-02-20 06:54:00,27.7,18.5,29.75,South,171,7.0,14.0,68,0.00,,,0.00,11.0,meteohub,2013-02-20 11:54:00,
2013-02-20 06:59:00,27.7,18.9,29.75,WNW,290,1.0,14.0,69,0.00,,,0.00,12.0,meteohub,2013-02-20 11:59:00,
2013-02-20 07:04:00,27.5,18.7,29.75,WNW,302,3.0,14.0,69,0.00,,,0.00,18.0,meteohub,2013-02-20 12:04:00,
2013-02-20 07:10:00,27.3,18.5,29.75,WNW,292,7.0,17.0,69,0.00,,,0.00,25.0,meteohub,2013-02-20 12:10:00,
2013-02-20 07:15:00,27.3,18.5,29.75,WNW,297,1.0,17.0,69,0.00,,,0.00,33.0,meteohub,2013-02-20 12:15:00,
2013-02-20 07:20:00,27.3,18.5,29.75,NW,315,2.0,17.0,69,0.00,,,0.00,37.0,meteohub,2013-02-20 12:20:00,
2013-02-20 07:26:00,27.1,18.3,29.74,West,281,4.0,17.0,69,0.00,,,0.00,33.0,meteohub,2013-02-20 12:26:00,
2013-02-20 07:31:00,27.1,18.3,29.75,West,275,7.0,17.0,69,0.00,,,0.00,40.0,meteohub,2013-02-20 12:31:00,
2013-02-20 07:36:00,27.1,18.7,29.75,SW,231,7.0,17.0,70,0.00,,,0.00,60.0,meteohub,2013-02-20 12:36:00,
2013-02-20 07:41:00,27.1,18.7,29.75,West,270,2.0,17.0,70,0.00,,,0.00,46.0,meteohub,2013-02-20 12:41:00,
2013-02-20 07:47:00,27.0,18.5,29.75,West,267,3.0,17.0,70,0.00,,,0.00,28.0,meteohub,2013-02-20 12:47:00,
2013-02-20 07:52:00,27.0,18.9,29.75,NNW,332,2.0,16.0,71,0.00,,,0.00,30.0,meteohub,2013-02-20 12:52:00,
2013-02-20 07:57:00,27.0,18.9,29.75,NNW,329,1.0,16.0,71,0.00,,,0.00,60.0,meteohub,2013-02-20 12:57:00,
2013-02-20 08:02:00,26.8,19.0,29.75,NW,317,5.0,16.0,72,0.00,,,0.00,47.0,meteohub,2013-02-20 13:02:00,
2013-02-20 08:07:00,27.0,18.9,29.75,WNW,282,1.0,16.0,71,0.00,,,0.00,77.0,meteohub,2013-02-20 13:07:00,
2013-02-20 08:12:00,27.1,19.4,29.75,WSW,240,11.0,14.0,72,0.00,,,0.00,160.0,meteohub,2013-02-20 13:12:00,
2013-02-20 08:17:00,27.3,19.2,29.75,WNW,288,7.0,14.0,71,0.00,,,0.00,130.0,meteohub,2013-02-20 13:17:00,
2013-02-20 08:22:00,27.3,18.5,29.75,WNW,296,5.0,14.0,69,0.00,,,0.00,104.0,meteohub,2013-02-20 13:22:00,
2013-02-20 08:27:00,27.5,18.7,29.75,West,263,4.0,14.0,69,0.00,,,0.00,83.0,meteohub,2013-02-20 13:27:00,
2013-02-20 08:32:00,27.7,18.5,29.75,West,271,3.0,19.0,68,0.00,,,0.00,74.0,meteohub,2013-02-20 13:32:00,
2013-02-20 08:37:00,27.7,18.5,29.76,WSW,248,3.0,19.0,68,0.00,,,0.00,90.0,meteohub,2013-02-20 13:37:00,
2013-02-20 08:42:00,27.7,18.1,29.76,WSW,257,3.0,19.0,67,0.00,,,0.00,98.0,meteohub,2013-02-20 13:42:00,
2013-02-20 08:47:00,27.7,17.8,29.76,West,271,4.0,19.0,66,0.00,,,0.00,125.0,meteohub,2013-02-20 13:47:00,
2013-02-20 08:52:00,27.9,17.6,29.75,WNW,284,1.0,14.0,65,0.00,,,0.00,116.0,meteohub,2013-02-20 13:52:00,
2013-02-20 08:57:00,27.9,17.6,29.76,WNW,283,1.0,14.0,65,0.00,,,0.00,128.0,meteohub,2013-02-20 13:57:00,
2013-02-20 09:02:00,27.9,17.6,29.76,WNW,293,6.0,14.0,65,0.00,,,0.00,132.0,meteohub,2013-02-20 14:02:00,
2013-02-20 09:07:00,28.0,17.8,29.75,WNW,289,7.0,14.0,65,0.00,,,0.00,165.0,meteohub,2013-02-20 14:07:00,
2013-02-20 09:12:00,28.0,17.8,29.75,WSW,255,5.0,20.0,65,0.00,,,0.00,120.0,meteohub,2013-02-20 14:12:00,
2013-02-20 09:17:00,28.2,17.6,29.75,NW,323,3.0,20.0,64,0.00,,,0.00,186.0,meteohub,2013-02-20 14:17:00,
2013-02-20 09:22:00,28.2,17.2,29.75,WNW,284,18.0,20.0,63,0.00,,,0.00,116.0,meteohub,2013-02-20 14:22:00,
2013-02-20 09:27:00,28.4,17.4,29.75,West,270,9.0,20.0,63,0.00,,,0.00,123.0,meteohub,2013-02-20 14:27:00,
2013-02-20 09:32:00,28.6,17.2,29.75,NW,305,6.0,18.0,62,0.00,,,0.00,127.0,meteohub,2013-02-20 14:32:00,
2013-02-20 09:37:00,28.8,17.1,29.75,North,350,3.0,18.0,61,0.00,,,0.00,135.0,meteohub,2013-02-20 14:37:00,
2013-02-20 09:42:00,28.9,16.9,29.75,WNW,283,7.0,18.0,60,0.00,,,0.00,271.0,meteohub,2013-02-20 14:42:00,
2013-02-20 09:48:00,29.1,16.5,29.75,WNW,292,7.0,16.0,59,0.00,,,0.00,355.0,meteohub,2013-02-20 14:48:00,
2013-02-20 09:53:00,29.3,16.7,29.76,WSW,241,10.0,16.0,59,0.00,,,0.00,334.0,meteohub,2013-02-20 14:53:00,
2013-02-20 09:58:00,29.7,16.3,29.75,West,274,14.0,16.0,57,0.00,,,0.00,149.0,meteohub,2013-02-20 14:58:00,
2013-02-20 10:04:00,29.7,15.8,29.75,NNW,332,7.0,16.0,56,0.00,,,0.00,214.0,meteohub,2013-02-20 15:04:00,
2013-02-20 10:09:00,29.7,15.4,29.75,NW,307,20.0,21.0,55,0.00,,,0.00,320.0,meteohub,2013-02-20 15:09:00,
2013-02-20 10:14:00,29.7,15.1,29.75,NNW,338,2.0,21.0,54,0.00,,,0.00,294.0,meteohub,2013-02-20 15:14:00,
2013-02-20 10:20:00,29.8,15.6,29.75,WNW,303,7.0,21.0,55,0.00,,,0.00,169.0,meteohub,2013-02-20 15:20:00,
2013-02-20 10:25:00,29.7,15.4,29.75,WNW,288,14.0,21.0,55,0.00,,,0.00,202.0,meteohub,2013-02-20 15:25:00,
2013-02-20 10:30:00,29.8,15.3,29.75,WNW,300,5.0,17.0,54,0.00,,,0.00,355.0,meteohub,2013-02-20 15:30:00,
2013-02-20 10:35:00,30.0,14.5,29.75,NW,317,9.0,17.0,52,0.00,,,0.00,543.0,meteohub,2013-02-20 15:35:00,
2013-02-20 10:41:00,30.6,13.6,29.75,NW,321,21.0,21.0,49,0.00,,,0.00,628.0,meteohub,2013-02-20 15:41:00,
2013-02-20 10:46:00,30.6,13.3,29.76,WNW,293,13.0,17.0,48,0.00,,,0.00,441.0,meteohub,2013-02-20 15:46:00,
2013-02-20 10:51:00,30.6,12.7,29.75,West,274,9.0,26.0,47,0.00,,,0.00,647.0,meteohub,2013-02-20 15:51:00,
2013-02-20 10:57:00,30.7,13.3,29.75,West,275,7.0,26.0,48,0.00,,,0.00,533.0,meteohub,2013-02-20 15:57:00,
2013-02-20 11:02:00,30.9,13.1,29.75,NNE,13,9.0,26.0,47,0.00,,,0.00,443.0,meteohub,2013-02-20 16:02:00,
2013-02-20 11:07:00,30.9,13.1,29.75,ENE,66,3.0,26.0,47,0.00,,,0.00,682.0,meteohub,2013-02-20 16:07:00,
2013-02-20 11:12:00,31.3,13.5,29.75,NW,321,7.0,26.0,47,0.00,,,0.00,587.0,meteohub,2013-02-20 16:12:00,
2013-02-20 11:17:00,31.3,12.9,29.76,SW,234,14.0,26.0,46,0.00,,,0.00,506.0,meteohub,2013-02-20 16:17:00,
2013-02-20 11:22:00,30.9,12.6,29.75,NW,306,5.0,26.0,46,0.00,,,0.00,304.0,meteohub,2013-02-20 16:22:00,
2013-02-20 11:27:00,30.7,12.4,29.75,NW,310,7.0,26.0,46,0.00,,,0.00,519.0,meteohub,2013-02-20 16:27:00,
2013-02-20 11:32:00,30.7,13.3,29.75,West,259,6.0,24.0,48,0.00,,,0.00,403.0,meteohub,2013-02-20 16:32:00,
2013-02-20 11:37:00,30.7,13.3,29.75,NW,317,14.0,24.0,48,0.00,,,0.00,281.0,meteohub,2013-02-20 16:37:00,
2013-02-20 11:42:00,30.6,13.3,29.75,WSW,238,10.0,24.0,48,0.00,,,0.00,262.0,meteohub,2013-02-20 16:42:00,
2013-02-20 11:47:00,30.4,13.1,29.75,West,279,10.0,24.0,48,0.00,,,0.00,199.0,meteohub,2013-02-20 16:47:00,
2013-02-20 11:52:00,30.0,12.7,29.75,NNE,15,6.0,26.0,48,0.00,,,0.00,211.0,meteohub,2013-02-20 16:52:00,
2013-02-20 11:57:00,29.8,12.6,29.74,NW,306,9.0,26.0,48,0.00,,,0.00,237.0,meteohub,2013-02-20 16:57:00,
2013-02-20 12:02:00,29.8,12.6,29.75,WNW,297,2.0,26.0,48,0.00,,,0.00,230.0,meteohub,2013-02-20 17:02:00,
2013-02-20 12:07:00,29.7,12.4,29.74,NW,325,3.0,26.0,48,0.00,,,0.00,232.0,meteohub,2013-02-20 17:07:00,
2013-02-20 12:12:00,29.8,13.5,29.74,NW,321,6.0,24.0,50,0.00,,,0.00,211.0,meteohub,2013-02-20 17:12:00,
2013-02-20 12:17:00,29.8,13.5,29.74,WNW,301,13.0,24.0,50,0.00,,,0.00,209.0,meteohub,2013-02-20 17:17:00,
2013-02-20 12:22:00,29.8,12.9,29.74,NNE,14,7.0,24.0,49,0.00,,,0.00,202.0,meteohub,2013-02-20 17:22:00,
2013-02-20 12:27:00,29.8,12.6,29.74,NNE,12,10.0,24.0,48,0.00,,,0.00,169.0,meteohub,2013-02-20 17:27:00,
2013-02-20 12:32:00,29.7,12.9,29.74,NW,312,10.0,24.0,49,0.00,,,0.00,160.0,meteohub,2013-02-20 17:32:00,
2013-02-20 12:37:00,29.7,12.4,29.74,WSW,251,7.0,23.0,48,0.00,,,0.00,178.0,meteohub,2013-02-20 17:37:00,
2013-02-20 12:42:00,29.5,12.2,29.74,West,259,12.0,23.0,48,0.00,,,0.00,179.0,meteohub,2013-02-20 17:42:00,
2013-02-20 12:47:00,29.5,12.2,29.74,WNW,300,10.0,23.0,48,0.00,,,0.00,181.0,meteohub,2013-02-20 17:47:00,
2013-02-20 12:52:00,29.7,13.3,29.75,West,281,9.0,23.0,50,0.00,,,0.00,221.0,meteohub,2013-02-20 17:52:00,
2013-02-20 12:57:00,29.7,12.9,29.74,SW,230,5.0,23.0,49,0.00,,,0.00,267.0,meteohub,2013-02-20 17:57:00,
2013-02-20 13:02:00,29.7,12.9,29.74,NW,322,9.0,24.0,49,0.00,,,0.00,258.0,meteohub,2013-02-20 18:02:00,
2013-02-20 13:07:00,29.8,12.6,29.74,NW,323,4.0,24.0,48,0.00,,,0.00,230.0,meteohub,2013-02-20 18:07:00,
2013-02-20 13:12:00,29.8,12.0,29.74,North,0,9.0,24.0,47,0.00,,,0.00,223.0,meteohub,2013-02-20 18:12:00,
2013-02-20 13:17:00,30.0,13.1,29.75,NNW,348,4.0,24.0,49,0.00,,,0.00,229.0,meteohub,2013-02-20 18:17:00,
2013-02-20 13:22:00,30.2,12.9,29.75,NW,315,5.0,24.0,48,0.00,,,0.00,271.0,meteohub,2013-02-20 18:22:00,
2013-02-20 13:27:00,30.4,13.1,29.75,WSW,254,5.0,23.0,48,0.00,,,0.00,279.0,meteohub,2013-02-20 18:27:00,
2013-02-20 13:32:00,30.6,13.3,29.75,WNW,293,9.0,23.0,48,0.00,,,0.00,214.0,meteohub,2013-02-20 18:32:00,
2013-02-20 13:37:00,30.6,13.6,29.75,NNW,335,2.0,23.0,49,0.00,,,0.00,188.0,meteohub,2013-02-20 18:37:00,
2013-02-20 13:42:00,30.6,13.6,29.75,West,262,5.0,23.0,49,0.00,,,0.00,167.0,meteohub,2013-02-20 18:42:00,
2013-02-20 13:47:00,30.4,13.5,29.75,WSW,254,5.0,20.0,49,0.00,,,0.00,165.0,meteohub,2013-02-20 18:47:00,
2013-02-20 13:52:00,30.2,13.3,29.75,NW,317,6.0,20.0,49,0.00,,,0.00,181.0,meteohub,2013-02-20 18:52:00,
2013-02-20 13:57:00,30.2,13.8,29.74,SW,224,3.0,20.0,50,0.00,,,0.00,214.0,meteohub,2013-02-20 18:57:00,
2013-02-20 14:02:00,30.4,13.5,29.75,WNW,294,2.0,21.0,49,0.00,,,0.00,193.0,meteohub,2013-02-20 19:02:00,
2013-02-20 14:07:00,30.4,14.4,29.75,NNW,340,5.0,21.0,51,0.00,,,0.00,179.0,meteohub,2013-02-20 19:07:00,
2013-02-20 14:12:00,30.4,14.4,29.76,NW,323,12.0,21.0,51,0.00,,,0.00,248.0,meteohub,2013-02-20 19:12:00,
2013-02-20 14:17:00,30.2,14.2,29.76,NW,313,11.0,21.0,51,0.00,,,0.00,207.0,meteohub,2013-02-20 19:17:00,
2013-02-20 14:22:00,30.0,14.0,29.76,West,280,6.0,21.0,51,0.00,,,0.00,461.0,meteohub,2013-02-20 19:22:00,
2013-02-20 14:27:00,30.2,14.7,29.75,NW,307,3.0,19.0,52,0.00,,,0.00,211.0,meteohub,2013-02-20 19:27:00,
2013-02-20 14:32:00,30.4,14.4,29.76,NNW,338,5.0,19.0,51,0.00,,,0.00,353.0,meteohub,2013-02-20 19:32:00,
2013-02-20 14:37:00,30.2,13.8,29.76,NW,306,4.0,19.0,50,0.00,,,0.00,332.0,meteohub,2013-02-20 19:37:00,
2013-02-20 14:42:00,30.0,13.6,29.77,NW,304,7.0,19.0,50,0.00,,,0.00,394.0,meteohub,2013-02-20 19:42:00,
2013-02-20 14:47:00,29.8,14.0,29.77,NW,304,2.0,31.0,51,0.00,,,0.00,420.0,meteohub,2013-02-20 19:47:00,
2013-02-20 14:52:00,30.2,14.7,29.77,WNW,296,2.0,31.0,52,0.00,,,0.00,450.0,meteohub,2013-02-20 19:52:00,
2013-02-20 14:57:00,30.6,15.1,29.77,West,265,12.0,31.0,52,0.00,,,0.00,485.0,meteohub,2013-02-20 19:57:00,
2013-02-20 15:02:00,30.9,15.4,29.77,WNW,288,5.0,20.0,52,0.00,,,0.00,153.0,meteohub,2013-02-20 20:02:00,
2013-02-20 15:07:00,30.6,14.2,29.77,WNW,302,4.0,20.0,50,0.00,,,0.00,120.0,meteohub,2013-02-20 20:07:00,
2013-02-20 15:12:00,30.0,13.6,29.78,SW,214,2.0,20.0,50,0.00,,,0.00,141.0,meteohub,2013-02-20 20:12:00,
2013-02-20 15:17:00,30.0,13.6,29.78,WNW,296,7.0,20.0,50,0.00,,,0.00,156.0,meteohub,2013-02-20 20:17:00,
2013-02-20 15:22:00,29.8,13.5,29.78,WNW,293,8.0,16.0,50,0.00,,,0.00,151.0,meteohub,2013-02-20 20:22:00,
2013-02-20 15:28:00,29.7,13.3,29.78,West,281,5.0,16.0,50,0.00,,,0.00,105.0,meteohub,2013-02-20 20:28:00,
2013-02-20 15:33:00,29.5,13.6,29.78,NW,306,9.0,16.0,51,0.00,,,0.00,113.0,meteohub,2013-02-20 20:33:00,
2013-02-20 15:38:00,29.5,13.6,29.78,NNW,339,7.0,16.0,51,0.00,,,0.00,123.0,meteohub,2013-02-20 20:38:00,
2013-02-20 15:44:00,29.3,13.5,29.78,WNW,302,17.0,20.0,51,0.00,,,0.00,255.0,meteohub,2013-02-20 20:44:00,
2013-02-20 15:49:00,29.5,14.0,29.78,WNW,297,8.0,20.0,52,0.00,,,0.00,100.0,meteohub,2013-02-20 20:49:00,
2013-02-20 15:54:00,29.5,14.5,29.78,NW,323,10.0,20.0,53,0.00,,,0.00,120.0,meteohub,2013-02-20 20:54:00,
2013-02-20 16:00:00,29.3,13.8,29.80,NW,324,5.0,20.0,52,0.00,,,0.00,120.0,meteohub,2013-02-20 21:00:00,
2013-02-20 16:05:00,28.9,14.0,29.80,NNW,339,6.0,22.0,53,0.00,,,0.00,90.0,meteohub,2013-02-20 21:05:00,
2013-02-20 16:10:00,28.8,13.8,29.80,West,259,3.0,22.0,53,0.00,,,0.00,93.0,meteohub,2013-02-20 21:10:00,
2013-02-20 16:16:00,28.6,14.0,29.80,West,268,9.0,22.0,54,0.00,,,0.00,97.0,meteohub,2013-02-20 21:16:00,
2013-02-20 16:21:00,28.4,14.7,29.80,WNW,283,7.0,22.0,56,0.00,,,0.00,97.0,meteohub,2013-02-20 21:21:00,
2013-02-20 16:26:00,28.4,14.7,29.80,WNW,295,5.0,22.0,56,0.00,,,0.00,79.0,meteohub,2013-02-20 21:26:00,
2013-02-20 16:31:00,28.2,14.9,29.81,WSW,250,3.0,22.0,57,0.00,,,0.00,84.0,meteohub,2013-02-20 21:31:00,
2013-02-20 16:37:00,28.0,14.7,29.81,NW,304,3.0,22.0,57,0.00,,,0.00,60.0,meteohub,2013-02-20 21:37:00,
2013-02-20 16:42:00,27.9,14.5,29.81,NNW,331,7.0,22.0,57,0.00,,,0.00,54.0,meteohub,2013-02-20 21:42:00,
2013-02-20 16:47:00,27.9,14.5,29.81,SE,140,2.0,21.0,57,0.00,,,0.00,60.0,meteohub,2013-02-20 21:47:00,
2013-02-20 16:52:00,27.7,14.9,29.81,NW,305,9.0,21.0,58,0.00,,,0.00,47.0,meteohub,2013-02-20 21:52:00,
2013-02-20 16:57:00,27.7,14.4,29.81,NE,34,7.0,21.0,57,0.00,,,0.00,37.0,meteohub,2013-02-20 21:57:00,
2013-02-20 17:03:00,27.5,14.7,29.81,West,280,4.0,21.0,58,0.00,,,0.00,33.0,meteohub,2013-02-20 22:03:00,
2013-02-20 17:08:00,27.3,14.2,29.81,SW,232,9.0,21.0,57,0.00,,,0.00,26.0,meteohub,2013-02-20 22:08:00,
2013-02-20 17:13:00,27.3,14.5,29.81,SW,219,9.0,21.0,58,0.00,,,0.00,19.0,meteohub,2013-02-20 22:13:00,
2013-02-20 17:19:00,27.1,14.4,29.81,NNW,340,0.0,16.0,58,0.00,,,0.00,12.0,meteohub,2013-02-20 22:19:00,
2013-02-20 17:24:00,27.1,14.4,29.81,WNW,284,1.0,16.0,58,0.00,,,0.00,11.0,meteohub,2013-02-20 22:24:00,
2013-02-20 17:29:00,27.1,14.7,29.82,WNW,295,1.0,16.0,59,0.00,,,0.00,7.0,meteohub,2013-02-20 22:29:00,
2013-02-20 17:35:00,27.1,14.7,29.82,West,281,3.0,15.0,59,0.00,,,0.00,0.0,meteohub,2013-02-20 22:35:00,
2013-02-20 17:40:00,27.0,14.2,29.82,West,271,6.0,15.0,58,0.00,,,0.00,0.0,meteohub,2013-02-20 22:40:00,
2013-02-20 17:45:00,27.0,14.5,29.82,West,279,1.0,14.0,59,0.00,,,0.00,0.0,meteohub,2013-02-20 22:45:00,
2013-02-20 17:50:00,27.0,14.9,29.82,NNW,331,10.0,14.0,60,0.00,,,0.00,0.0,meteohub,2013-02-20 22:50:00,
2013-02-20 17:56:00,27.0,14.9,29.82,NW,319,5.0,13.0,60,0.00,,,0.00,0.0,meteohub,2013-02-20 22:56:00,
2013-02-20 18:01:00,26.8,14.4,29.83,West,277,5.0,13.0,59,0.00,,,0.00,0.0,meteohub,2013-02-20 23:01:00,
2013-02-20 18:06:00,26.8,14.7,29.83,WNW,297,2.0,13.0,60,0.00,,,0.00,0.0,meteohub,2013-02-20 23:06:00,
2013-02-20 18:12:00,26.6,14.5,29.83,West,271,5.0,22.0,60,0.00,,,0.00,0.0,meteohub,2013-02-20 23:12:00,
2013-02-20 18:17:00,26.6,14.9,29.83,NNW,342,12.0,22.0,61,0.00,,,0.00,0.0,meteohub,2013-02-20 23:17:00,
2013-02-20 18:22:00,26.4,14.4,29.83,West,269,15.0,27.0,60,0.00,,,0.00,0.0,meteohub,2013-02-20 23:22:00,
2013-02-20 18:27:00,26.4,14.7,29.85,WSW,249,12.0,27.0,61,0.00,,,0.00,0.0,meteohub,2013-02-20 23:27:00,
2013-02-20 18:32:00,26.2,14.5,29.85,WNW,292,9.0,27.0,61,0.00,,,0.00,0.0,meteohub,2013-02-20 23:32:00,
2013-02-20 18:37:00,26.2,15.1,29.84,WNW,286,4.0,27.0,62,0.00,,,0.00,0.0,meteohub,2013-02-20 23:37:00,
2013-02-20 18:42:00,26.2,15.1,29.85,West,264,2.0,27.0,62,0.00,,,0.00,0.0,meteohub,2013-02-20 23:42:00,
2013-02-20 18:47:00,26.1,15.3,29.85,West,270,10.0,19.0,63,0.00,,,0.00,0.0,meteohub,2013-02-20 23:47:00,
2013-02-20 18:52:00,26.1,15.3,29.84,NW,313,5.0,19.0,63,0.00,,,0.00,0.0,meteohub,2013-02-20 23:52:00,
2013-02-20 18:57:00,25.9,15.4,29.84,WSW,239,11.0,19.0,64,0.00,,,0.00,0.0,meteohub,2013-02-20 23:57:00,
2013-02-20 19:02:00,25.9,15.4,29.84,WNW,287,7.0,19.0,64,0.00,,,0.00,0.0,meteohub,2013-02-21 00:02:00,
2013-02-20 19:08:00,25.7,15.3,29.84,West,274,11.0,19.0,64,0.00,,,0.00,0.0,meteohub,2013-02-21 00:08:00,
2013-02-20 19:13:00,25.5,15.4,29.83,WNW,291,9.0,19.0,65,0.00,,,0.00,0.0,meteohub,2013-02-21 00:13:00,
2013-02-20 19:18:00,25.5,15.4,29.83,WNW,300,12.0,22.0,65,0.00,,,0.00,0.0,meteohub,2013-02-21 00:18:00,
2013-02-20 19:24:00,25.5,15.4,29.83,WNW,296,11.0,22.0,65,0.00,,,0.00,0.0,meteohub,2013-02-21 00:24:00,
2013-02-20 19:29:00,25.5,15.8,29.84,WNW,285,9.0,25.0,66,0.00,,,0.00,0.0,meteohub,2013-02-21 00:29:00,
2013-02-20 19:34:00,25.5,15.8,29.84,NW,304,7.0,25.0,66,0.00,,,0.00,0.0,meteohub,2013-02-21 00:34:00,
2013-02-20 19:39:00,25.5,15.8,29.85,WNW,288,2.0,25.0,66,0.00,,,0.00,0.0,meteohub,2013-02-21 00:39:00,
2013-02-20 19:45:00,25.5,15.8,29.85,West,263,9.0,25.0,66,0.00,,,0.00,0.0,meteohub,2013-02-21 00:45:00,
2013-02-20 19:50:00,25.5,15.8,29.85,SSW,205,2.0,14.0,66,0.00,,,0.00,0.0,meteohub,2013-02-21 00:50:00,
2013-02-20 19:55:00,25.5,15.8,29.85,WNW,290,5.0,18.0,66,0.00,,,0.00,0.0,meteohub,2013-02-21 00:55:00,
2013-02-20 20:01:00,25.5,16.2,29.85,WNW,291,6.0,18.0,67,0.00,,,0.00,0.0,meteohub,2013-02-21 01:01:00,
2013-02-20 20:06:00,25.5,16.2,29.85,WNW,291,13.0,18.0,67,0.00,,,0.00,0.0,meteohub,2013-02-21 01:06:00,
2013-02-20 20:11:00,25.5,15.8,29.85,West,263,3.0,18.0,66,0.00,,,0.00,0.0,meteohub,2013-02-21 01:11:00,
2013-02-20 20:17:00,25.7,16.0,29.85,WNW,300,8.0,22.0,66,0.00,,,0.00,0.0,meteohub,2013-02-21 01:17:00,
2013-02-20 20:22:00,25.7,16.0,29.86,WSW,253,6.0,22.0,66,0.00,,,0.00,0.0,meteohub,2013-02-21 01:22:00,
2013-02-20 20:27:00,25.7,16.3,29.85,WNW,288,2.0,19.0,67,0.00,,,0.00,0.0,meteohub,2013-02-21 01:27:00,
2013-02-20 20:32:00,25.9,16.5,29.85,WNW,287,12.0,19.0,67,0.00,,,0.00,0.0,meteohub,2013-02-21 01:32:00,
2013-02-20 20:37:00,25.9,16.5,29.85,West,275,10.0,18.0,67,0.00,,,0.00,0.0,meteohub,2013-02-21 01:37:00,
2013-02-20 20:42:00,25.7,16.3,29.85,SW,214,3.0,18.0,67,0.00,,,0.00,0.0,meteohub,2013-02-21 01:42:00,
2013-02-20 20:47:00,25.7,16.3,29.85,NNE,14,2.0,25.0,67,0.00,,,0.00,0.0,meteohub,2013-02-21 01:47:00,
2013-02-20 20:52:00,25.7,16.3,29.85,East,82,5.0,25.0,67,0.00,,,0.00,0.0,meteohub,2013-02-21 01:52:00,
2013-02-20 20:57:00,25.7,16.5,29.86,WSW,241,1.0,23.0,68,0.00,,,0.00,0.0,meteohub,2013-02-21 01:57:00,
2013-02-20 21:02:00,25.7,16.9,29.86,NW,321,5.0,23.0,69,0.00,,,0.00,0.0,meteohub,2013-02-21 02:02:00,
2013-02-20 21:07:00,25.7,16.9,29.86,NW,314,2.0,23.0,69,0.00,,,0.00,0.0,meteohub,2013-02-21 02:07:00,
2013-02-20 21:12:00,25.9,17.1,29.86,West,270,7.0,23.0,69,0.00,,,0.00,0.0,meteohub,2013-02-21 02:12:00,
2013-02-20 21:17:00,25.9,17.1,29.86,NW,323,5.0,16.0,69,0.00,,,0.00,0.0,meteohub,2013-02-21 02:17:00,
2013-02-20 21:22:00,25.9,17.4,29.87,NW,304,9.0,16.0,70,0.00,,,0.00,0.0,meteohub,2013-02-21 02:22:00,
2013-02-20 21:27:00,25.9,17.4,29.87,West,275,7.0,15.0,70,0.00,,,0.00,0.0,meteohub,2013-02-21 02:27:00,
2013-02-20 21:32:00,25.9,17.4,29.87,West,272,9.0,15.0,70,0.00,,,0.00,0.0,meteohub,2013-02-21 02:32:00,
2013-02-20 21:37:00,25.9,17.4,29.87,WNW,301,7.0,22.0,70,0.00,,,0.00,0.0,meteohub,2013-02-21 02:37:00,
2013-02-20 21:42:00,25.9,17.4,29.87,West,270,7.0,22.0,70,0.00,,,0.00,0.0,meteohub,2013-02-21 02:42:00,
2013-02-20 21:47:00,26.1,17.6,29.88,West,268,7.0,24.0,70,0.00,,,0.00,0.0,meteohub,2013-02-21 02:47:00,
2013-02-20 21:52:00,26.1,17.6,29.88,SW,219,2.0,24.0,70,0.00,,,0.00,0.0,meteohub,2013-02-21 02:52:00,
2013-02-20 21:57:00,26.1,17.6,29.88,WNW,296,4.0,24.0,70,0.00,,,0.00,0.0,meteohub,2013-02-21 02:57:00,
2013-02-20 22:02:00,26.1,17.6,29.88,NW,322,5.0,24.0,70,0.00,,,0.00,0.0,meteohub,2013-02-21 03:02:00,
2013-02-20 22:07:00,26.1,17.6,29.89,ENE,61,4.0,24.0,70,0.00,,,0.00,0.0,meteohub,2013-02-21 03:07:00,
2013-02-20 22:12:00,25.9,17.4,29.89,WNW,291,6.0,21.0,70,0.00,,,0.00,0.0,meteohub,2013-02-21 03:12:00,
2013-02-20 22:17:00,25.9,17.4,29.89,WNW,290,3.0,17.0,70,0.00,,,0.00,0.0,meteohub,2013-02-21 03:17:00,
2013-02-20 22:22:00,25.9,17.4,29.89,West,278,6.0,17.0,70,0.00,,,0.00,0.0,meteohub,2013-02-21 03:22:00,
2013-02-20 22:27:00,25.9,17.8,29.89,SW,224,2.0,15.0,71,0.00,,,0.00,0.0,meteohub,2013-02-21 03:27:00,
2013-02-20 22:32:00,26.1,17.6,29.89,NW,323,7.0,15.0,70,0.00,,,0.00,0.0,meteohub,2013-02-21 03:32:00,
2013-02-20 22:37:00,25.9,17.4,29.90,WSW,248,0.0,16.0,70,0.00,,,0.00,0.0,meteohub,2013-02-21 03:37:00,
2013-02-20 22:42:00,25.9,17.4,29.89,WSW,252,14.0,16.0,70,0.00,,,0.00,0.0,meteohub,2013-02-21 03:42:00,
2013-02-20 22:47:00,25.9,17.4,29.89,NW,309,9.0,16.0,70,0.00,,,0.00,0.0,meteohub,2013-02-21 03:47:00,
2013-02-20 22:52:00,25.9,17.4,29.89,NW,306,3.0,16.0,70,0.00,,,0.00,0.0,meteohub,2013-02-21 03:52:00,
2013-02-20 22:57:00,25.9,17.1,29.89,NNW,336,3.0,15.0,69,0.00,,,0.00,0.0,meteohub,2013-02-21 03:57:00,
2013-02-20 23:02:00,26.1,17.2,29.89,NE,40,2.0,15.0,69,0.00,,,0.00,0.0,meteohub,2013-02-21 04:02:00,
2013-02-20 23:07:00,26.1,17.2,29.89,NW,316,1.0,15.0,69,0.00,,,0.00,0.0,meteohub,2013-02-21 04:07:00,
2013-02-20 23:13:00,26.1,17.2,29.89,WNW,290,4.0,14.0,69,0.00,,,0.00,0.0,meteohub,2013-02-21 04:13:00,
2013-02-20 23:18:00,26.1,17.2,29.89,WSW,251,4.0,14.0,69,0.00,,,0.00,0.0,meteohub,2013-02-21 04:18:00,
2013-02-20 23:23:00,26.1,16.9,29.89,NW,309,4.0,14.0,68,0.00,,,0.00,0.0,meteohub,2013-02-21 04:23:00,
2013-02-20 23:28:00,26.1,16.9,29.88,NE,34,2.0,15.0,68,0.00,,,0.00,0.0,meteohub,2013-02-21 04:28:00,
2013-02-20 23:34:00,26.1,16.9,29.88,West,262,10.0,15.0,68,0.00,,,0.00,0.0,meteohub,2013-02-21 04:34:00,
2013-02-20 23:39:00,26.1,16.9,29.89,NNW,333,6.0,16.0,68,0.00,,,0.00,0.0,meteohub,2013-02-21 04:39:00,
2013-02-20 23:44:00,26.1,16.9,29.89,West,259,1.0,16.0,68,0.00,,,0.00,0.0,meteohub,2013-02-21 04:44:00,
2013-02-20 23:50:00,26.1,16.9,29.89,WNW,300,4.0,23.0,68,0.00,,,0.00,0.0,meteohub,2013-02-21 04:50:00,
2013-02-20 23:55:00,25.9,16.7,29.90,West,275,10.0,23.0,68,0.00,,,0.00,0.0,meteohub,2013-02-21 04:55:00,